Time;durP1;ratioP1;P1;durP2;ratioP2;P2;SDS_P1;SDS_P2;PMS_P1;PMS_P2;Temp;Humidity;BMP_temperature;BMP_pressure;BME280_temperature;BME280_humidity;BME280_pressure;Samples;Min_cycle;Max_cycle;Signal;HPM_P1;HPM_P2
2021/10/07 00:02:09;;;;;;;18.08;11.35;;;;;;;;;;5072996;28;20040;-75
2021/10/07 00:04:38;;;;;;;15.73;10.27;;;;;;;;;;5072904;28;20097;-75
2021/10/07 00:07:06;;;;;;;21.83;12.23;;;;;;;;;;5072735;28;20051;-78
2021/10/07 00:09:34;;;;;;;15.52;10.13;;;;;;;;;;5072936;28;20051;-75
2021/10/07 00:12:01;;;;;;;19.13;10.88;;;;;;;;;;5072904;28;20485;-74
2021/10/07 00:14:29;;;;;;;20.77;10.35;;;;;;;;;;5067360;28;20435;-75
2021/10/07 00:16:57;;;;;;;14.63;9.25;;;;;;;;;;5072768;28;20044;-74
2021/10/07 00:19:24;;;;;;;15.35;9.23;;;;;;;;;;5072584;28;20045;-74
2021/10/07 00:21:53;;;;;;;9.45;5.70;;;;;;;;;;5054246;28;20135;-75
2021/10/07 00:24:20;;;;;;;9.00;4.90;;;;;;;;;;5054403;28;20409;-75
2021/10/07 00:26:48;;;;;;;5.78;4.13;;;;;;;;;;5072670;28;20037;-78
2021/10/07 00:32:20;;;;;;;6.20;3.53;;;;;;;;;;5072930;28;20128;-74
2021/10/07 00:40:24;;;;;;;6.55;3.63;;;;;;;;;;5072506;28;20048;-74
2021/10/07 00:42:52;;;;;;;5.85;3.83;;;;;;;;;;5073199;28;20468;-74
2021/10/07 00:45:23;;;;;;;7.78;3.85;;;;;;;;;;5072314;28;20477;-74
2021/10/07 00:47:50;;;;;;;6.82;4.20;;;;;;;;;;5072173;28;20400;-78
2021/10/07 00:50:18;;;;;;;8.57;4.35;;;;;;;;;;5037738;28;20527;-78
2021/10/07 00:52:47;;;;;;;8.68;4.88;;;;;;;;;;5054894;28;20280;-75
2021/10/07 00:55:15;;;;;;;10.25;4.78;;;;;;;;;;5038347;28;20048;-74
2021/10/07 00:57:43;;;;;;;11.85;5.50;;;;;;;;;;5072436;28;20040;-74
2021/10/07 01:00:11;;;;;;;10.60;5.50;;;;;;;;;;5072762;28;20063;-78
2021/10/07 01:02:39;;;;;;;7.93;4.90;;;;;;;;;;5054158;28;20421;-75
2021/10/07 01:05:09;;;;;;;6.90;4.70;;;;;;;;;;5054172;28;20604;-74
2021/10/07 01:07:37;;;;;;;8.15;5.10;;;;;;;;;;5072573;28;20037;-74
2021/10/07 01:10:04;;;;;;;15.23;5.03;;;;;;;;;;5072285;28;20045;-79
2021/10/07 01:12:36;;;;;;;8.55;4.50;;;;;;;;;;5072066;28;20045;-79
2021/10/07 01:15:04;;;;;;;8.55;4.38;;;;;;;;;;5072415;28;20508;-75
2021/10/07 01:17:32;;;;;;;9.68;4.30;;;;;;;;;;5071868;28;20045;-74
2021/10/07 01:20:00;;;;;;;10.85;5.10;;;;;;;;;;5072224;28;20051;-74
2021/10/07 01:22:29;;;;;;;6.55;4.30;;;;;;;;;;5072243;28;20079;-75
2021/10/07 01:24:57;;;;;;;12.50;4.45;;;;;;;;;;5072237;28;20048;-75
2021/10/07 01:27:26;;;;;;;5.93;4.25;;;;;;;;;;5072182;28;20047;-75
2021/10/07 01:29:56;;;;;;;9.60;4.00;;;;;;;;;;5054535;28;20048;-74
2021/10/07 01:32:24;;;;;;;5.95;3.72;;;;;;;;;;5054553;28;20102;-78
2021/10/07 01:34:52;;;;;;;8.27;4.05;;;;;;;;;;5074551;28;20036;-75
2021/10/07 01:37:19;;;;;;;7.05;3.90;;;;;;;;;;5076115;28;20037;-75
2021/10/07 01:39:48;;;;;;;8.75;3.88;;;;;;;;;;5042119;28;20466;-75
2021/10/07 01:42:18;;;;;;;6.22;3.80;;;;;;;;;;5058285;28;20047;-75
2021/10/07 01:44:46;;;;;;;7.53;3.70;;;;;;;;;;5075486;28;20045;-75
2021/10/07 01:47:16;;;;;;;6.10;3.60;;;;;;;;;;5074954;28;20144;-74
2021/10/07 01:49:44;;;;;;;11.35;3.78;;;;;;;;;;5075541;28;20051;-75
2021/10/07 01:52:12;;;;;;;13.48;3.70;;;;;;;;;;5075477;28;20052;-74
2021/10/07 01:54:41;;;;;;;5.45;3.35;;;;;;;;;;5067507;28;20548;-75
2021/10/07 01:57:08;;;;;;;8.13;3.10;;;;;;;;;;5058128;28;20040;-79
2021/10/07 01:59:35;;;;;;;5.93;2.70;;;;;;;;;;5075741;28;20507;-75
2021/10/07 02:02:03;;;;;;;8.75;2.83;;;;;;;;;;5075051;28;20047;-74
2021/10/07 02:04:31;;;;;;;7.05;2.83;;;;;;;;;;5075159;28;20044;-76
2021/10/07 02:06:58;;;;;;;8.32;2.90;;;;;;;;;;5057402;28;20040;-75
2021/10/07 02:09:25;;;;;;;7.25;2.80;;;;;;;;;;5075298;28;20037;-79
2021/10/07 02:11:53;;;;;;;4.38;2.40;;;;;;;;;;5057415;28;20159;-78
2021/10/07 02:14:24;;;;;;;4.35;2.40;;;;;;;;;;5057716;28;20044;-75
2021/10/07 02:16:55;;;;;;;7.25;2.60;;;;;;;;;;5057506;28;20485;-75
2021/10/07 02:19:23;;;;;;;8.48;2.47;;;;;;;;;;5057816;28;20037;-75
2021/10/07 02:21:51;;;;;;;4.85;2.53;;;;;;;;;;5057411;28;20048;-75
2021/10/07 02:24:19;;;;;;;3.25;2.50;;;;;;;;;;5075134;28;20120;-79
2021/10/07 02:26:46;;;;;;;3.72;2.50;;;;;;;;;;5074837;28;20037;-74
2021/10/07 02:29:14;;;;;;;5.50;2.40;;;;;;;;;;5074735;28;20119;-79
2021/10/07 02:31:41;;;;;;;6.65;2.00;;;;;;;;;;5074731;28;20440;-79
2021/10/07 02:34:09;;;;;;;4.03;1.95;;;;;;;;;;5056805;28;20481;-79
2021/10/07 02:36:37;;;;;;;3.38;2.13;;;;;;;;;;5074749;28;20040;-75
2021/10/07 02:39:07;;;;;;;4.25;1.90;;;;;;;;;;5057106;28;20064;-75
2021/10/07 02:41:34;;;;;;;4.30;1.95;;;;;;;;;;5074893;28;20052;-75
2021/10/07 02:44:03;;;;;;;5.28;2.17;;;;;;;;;;5074104;28;20040;-79
2021/10/07 02:46:32;;;;;;;8.27;4.50;;;;;;;;;;5073096;28;20060;-75
2021/10/07 02:49:00;;;;;;;9.90;5.78;;;;;;;;;;5074285;28;20116;-78
2021/10/07 02:51:27;;;;;;;6.03;3.85;;;;;;;;;;5040164;28;20079;-74
2021/10/07 02:53:55;;;;;;;7.20;3.40;;;;;;;;;;5074726;28;20528;-75
2021/10/07 02:56:23;;;;;;;5.70;2.80;;;;;;;;;;5074513;28;20044;-74
2021/10/07 02:58:50;;;;;;;5.65;3.30;;;;;;;;;;5056754;28;20457;-75
2021/10/07 03:01:20;;;;;;;11.27;4.15;;;;;;;;;;5074634;28;20075;-79
2021/10/07 03:03:49;;;;;;;14.48;7.25;;;;;;;;;;5056330;28;20054;-75
2021/10/07 03:06:18;;;;;;;8.15;5.28;;;;;;;;;;5055900;28;20139;-75
2021/10/07 03:08:45;;;;;;;3.88;3.08;;;;;;;;;;5074295;28;20067;-75
2021/10/07 03:11:14;;;;;;;8.75;4.70;;;;;;;;;;5056424;28;20060;-75
2021/10/07 03:13:42;;;;;;;8.32;3.90;;;;;;;;;;5073711;28;20484;-74
2021/10/07 03:16:10;;;;;;;4.93;3.58;;;;;;;;;;5074131;28;20060;-75
2021/10/07 03:18:37;;;;;;;6.97;3.40;;;;;;;;;;5056069;28;20107;-75
2021/10/07 03:21:07;;;;;;;9.07;3.22;;;;;;;;;;5073972;28;20044;-79
2021/10/07 03:23:36;;;;;;;6.88;3.10;;;;;;;;;;5056048;28;20048;-75
2021/10/07 03:26:03;;;;;;;10.82;3.35;;;;;;;;;;5073774;28;20469;-73
2021/10/07 03:28:33;;;;;;;13.65;2.33;;;;;;;;;;5055168;28;20086;-75
2021/10/07 03:31:01;;;;;;;4.38;2.05;;;;;;;;;;5073334;28;20032;-75
2021/10/07 03:33:29;;;;;;;5.40;1.85;;;;;;;;;;5055877;28;20064;-79
2021/10/07 03:35:57;;;;;;;8.00;2.78;;;;;;;;;;5073558;28;20041;-74
2021/10/07 03:38:29;;;;;;;5.85;3.17;;;;;;;;;;5073302;28;20048;-79
2021/10/07 03:40:57;;;;;;;5.55;2.50;;;;;;;;;;5055294;28;20090;-75
2021/10/07 03:43:28;;;;;;;5.18;3.00;;;;;;;;;;5072755;28;20060;-78
2021/10/07 03:45:55;;;;;;;3.90;3.10;;;;;;;;;;5039033;28;20061;-75
2021/10/07 03:48:24;;;;;;;6.78;2.42;;;;;;;;;;5073091;28;20040;-75
2021/10/07 03:50:51;;;;;;;8.48;2.05;;;;;;;;;;5055559;28;20040;-73
2021/10/07 03:53:19;;;;;;;3.40;1.65;;;;;;;;;;5055205;28;20405;-75
2021/10/07 03:55:47;;;;;;;5.30;1.50;;;;;;;;;;5055074;28;20045;-79
2021/10/07 03:58:16;;;;;;;3.10;1.52;;;;;;;;;;5055244;28;20083;-73
2021/10/07 04:00:43;;;;;;;8.02;1.58;;;;;;;;;;5055654;28;20049;-75
2021/10/07 04:03:11;;;;;;;6.45;1.90;;;;;;;;;;5073348;28;20044;-74
2021/10/07 04:05:39;;;;;;;3.08;1.75;;;;;;;;;;5072932;28;20054;-75
2021/10/07 04:08:06;;;;;;;4.10;1.98;;;;;;;;;;5055003;28;20535;-75
2021/10/07 04:10:35;;;;;;;5.10;2.13;;;;;;;;;;5072795;28;20047;-74
2021/10/07 04:13:07;;;;;;;4.90;2.20;;;;;;;;;;5073156;28;20083;-78
2021/10/07 04:15:34;;;;;;;6.72;1.90;;;;;;;;;;5075272;28;20044;-78
2021/10/07 04:18:04;;;;;;;6.65;1.73;;;;;;;;;;5073346;28;20083;-78
2021/10/07 04:20:35;;;;;;;3.55;1.23;;;;;;;;;;5072891;28;20058;-74
2021/10/07 04:23:03;;;;;;;12.45;2.58;;;;;;;;;;5072673;28;20048;-75
2021/10/07 04:25:33;;;;;;;3.47;1.17;;;;;;;;;;5072975;28;20041;-75
2021/10/07 04:28:04;;;;;;;5.80;1.30;;;;;;;;;;5072579;28;20037;-75
2021/10/07 04:30:37;;;;;;;10.13;2.47;;;;;;;;;;5072511;28;20094;-75
2021/10/07 04:33:05;;;;;;;8.80;1.77;;;;;;;;;;5054827;28;20080;-75
2021/10/07 04:35:33;;;;;;;6.20;1.60;;;;;;;;;;5072783;28;20037;-76
2021/10/07 04:38:00;;;;;;;3.05;1.40;;;;;;;;;;5072876;28;20120;-74
2021/10/07 04:40:28;;;;;;;7.22;1.88;;;;;;;;;;5072800;28;20062;-74
2021/10/07 04:42:58;;;;;;;5.40;2.08;;;;;;;;;;5054756;28;20075;-78
2021/10/07 04:45:26;;;;;;;8.43;2.95;;;;;;;;;;5072017;28;20051;-78
2021/10/07 04:47:57;;;;;;;7.68;3.92;;;;;;;;;;5072744;28;20198;-76
2021/10/07 04:50:25;;;;;;;11.68;3.20;;;;;;;;;;5072268;28;20040;-75
2021/10/07 04:52:52;;;;;;;5.57;1.98;;;;;;;;;;5072536;28;20113;-74
2021/10/07 04:55:20;;;;;;;9.30;1.90;;;;;;;;;;5072080;28;20119;-78
2021/10/07 04:57:47;;;;;;;6.18;1.85;;;;;;;;;;5072568;28;20064;-75
2021/10/07 05:00:15;;;;;;;10.57;1.92;;;;;;;;;;5072800;28;20072;-75
2021/10/07 05:02:44;;;;;;;9.23;1.85;;;;;;;;;;5072566;28;20554;-75
2021/10/07 05:05:14;;;;;;;6.85;2.60;;;;;;;;;;5054603;28;20461;-74
2021/10/07 05:07:43;;;;;;;5.43;1.75;;;;;;;;;;5054700;28;20051;-76
2021/10/07 05:10:11;;;;;;;8.57;3.13;;;;;;;;;;5075092;28;20039;-78
2021/10/07 05:12:41;;;;;;;11.38;2.95;;;;;;;;;;5076357;28;20102;-75
2021/10/07 05:15:09;;;;;;;5.20;2.17;;;;;;;;;;5075988;28;20436;-73
2021/10/07 05:17:37;;;;;;;8.70;2.20;;;;;;;;;;5058278;28;20492;-77
2021/10/07 05:20:06;;;;;;;12.27;2.17;;;;;;;;;;5076456;28;20071;-75
2021/10/07 05:22:34;;;;;;;7.85;1.70;;;;;;;;;;5057873;28;20045;-75
2021/10/07 05:25:03;;;;;;;4.28;1.50;;;;;;;;;;5057680;28;20045;-75
2021/10/07 05:27:31;;;;;;;18.33;2.22;;;;;;;;;;5056864;28;20040;-76
2021/10/07 05:29:59;;;;;;;7.85;2.25;;;;;;;;;;5074392;28;20035;-76
2021/10/07 05:32:28;;;;;;;9.48;1.98;;;;;;;;;;5056264;28;20036;-77
2021/10/07 05:34:59;;;;;;;8.50;1.73;;;;;;;;;;5075724;28;20394;-75
2021/10/07 05:37:28;;;;;;;13.45;2.17;;;;;;;;;;5075049;28;20043;-74
2021/10/07 05:39:55;;;;;;;6.20;1.90;;;;;;;;;;5074933;28;20049;-75
2021/10/07 05:42:23;;;;;;;8.40;2.10;;;;;;;;;;5075137;28;20044;-78
2021/10/07 05:44:53;;;;;;;7.75;1.90;;;;;;;;;;5075334;28;20047;-75
2021/10/07 05:47:21;;;;;;;7.70;2.28;;;;;;;;;;5075177;28;20052;-77
2021/10/07 05:49:48;;;;;;;6.85;1.90;;;;;;;;;;5075240;28;20047;-75
2021/10/07 05:52:20;;;;;;;7.97;2.28;;;;;;;;;;5075072;28;20116;-75
2021/10/07 05:54:52;;;;;;;6.60;3.10;;;;;;;;;;5074861;28;20048;-75
2021/10/07 05:57:19;;;;;;;8.32;3.15;;;;;;;;;;5074282;28;20063;-77
2021/10/07 05:59:47;;;;;;;10.95;2.65;;;;;;;;;;5074872;28;20072;-75
2021/10/07 06:02:14;;;;;;;8.30;2.78;;;;;;;;;;5075014;28;20531;-75
2021/10/07 06:04:42;;;;;;;9.02;3.25;;;;;;;;;;5075014;28;20105;-75
2021/10/07 06:07:11;;;;;;;8.43;2.42;;;;;;;;;;5057358;28;20123;-74
2021/10/07 06:09:40;;;;;;;8.85;2.90;;;;;;;;;;5074951;28;20071;-72
2021/10/07 06:12:07;;;;;;;10.73;2.08;;;;;;;;;;5074799;28;20047;-72
2021/10/07 06:14:35;;;;;;;8.50;2.25;;;;;;;;;;5073472;28;20040;-71
2021/10/07 06:17:04;;;;;;;10.55;2.50;;;;;;;;;;5069962;28;20063;-73
2021/10/07 06:19:36;;;;;;;7.80;2.13;;;;;;;;;;5075140;28;20052;-73
2021/10/07 06:22:04;;;;;;;8.70;2.40;;;;;;;;;;5056250;28;20047;-72
2021/10/07 06:24:31;;;;;;;7.25;2.20;;;;;;;;;;5074244;28;20509;-74
2021/10/07 06:26:59;;;;;;;7.03;2.10;;;;;;;;;;5071620;28;20055;-73
2021/10/07 06:29:27;;;;;;;5.88;2.13;;;;;;;;;;5074246;28;20041;-73
2021/10/07 06:31:55;;;;;;;7.38;2.00;;;;;;;;;;5074015;28;20033;-71
2021/10/07 06:34:24;;;;;;;9.52;1.95;;;;;;;;;;5056252;28;20044;-72
2021/10/07 06:36:51;;;;;;;8.48;1.73;;;;;;;;;;5073327;28;20029;-72
2021/10/07 06:39:19;;;;;;;9.13;2.05;;;;;;;;;;5073963;28;20033;-72
2021/10/07 06:41:47;;;;;;;5.30;1.92;;;;;;;;;;5074740;28;20047;-71
2021/10/07 06:44:15;;;;;;;21.95;3.55;;;;;;;;;;5056127;28;20055;-72
2021/10/07 06:46:42;;;;;;;141.98;15.52;;;;;;;;;;5074443;28;20049;-73
2021/10/07 06:49:09;;;;;;;7.75;1.90;;;;;;;;;;5074446;28;20147;-70
2021/10/07 06:51:37;;;;;;;9.95;2.30;;;;;;;;;;5055904;28;20045;-71
2021/10/07 06:54:05;;;;;;;8.07;2.05;;;;;;;;;;5074625;28;20563;-74
2021/10/07 06:56:33;;;;;;;6.20;1.83;;;;;;;;;;5073994;28;20421;-74
2021/10/07 06:59:01;;;;;;;9.57;2.10;;;;;;;;;;5056159;28;20138;-73
2021/10/07 07:01:29;;;;;;;9.18;1.95;;;;;;;;;;5074134;28;20170;-72
2021/10/07 07:03:57;;;;;;;10.18;2.00;;;;;;;;;;5073946;28;20444;-70
2021/10/07 07:06:28;;;;;;;9.23;2.47;;;;;;;;;;5073069;28;20043;-71
2021/10/07 07:08:56;;;;;;;7.18;1.75;;;;;;;;;;5073747;28;20078;-71
2021/10/07 07:11:27;;;;;;;8.15;2.22;;;;;;;;;;5073362;28;20032;-76
2021/10/07 07:13:59;;;;;;;11.82;2.90;;;;;;;;;;5080631;28;20480;-69
2021/10/07 07:16:27;;;;;;;9.52;2.03;;;;;;;;;;5077132;28;20519;-76
2021/10/07 07:18:55;;;;;;;14.88;2.80;;;;;;;;;;5073528;28;20071;-69
2021/10/07 07:21:31;;;;;;;12.27;2.20;;;;;;;;;;5072702;28;20044;-74
2021/10/07 07:24:00;;;;;;;7.50;2.00;;;;;;;;;;5070860;28;20408;-71
2021/10/07 07:26:28;;;;;;;12.57;2.28;;;;;;;;;;5073405;28;20048;-76
2021/10/07 07:28:57;;;;;;;10.15;2.13;;;;;;;;;;5055291;28;20439;-72
2021/10/07 07:31:25;;;;;;;8.00;2.20;;;;;;;;;;5072500;28;20036;-74
2021/10/07 07:34:01;;;;;;;9.77;2.47;;;;;;;;;;5072934;28;20038;-71
2021/10/07 07:36:30;;;;;;;15.38;2.85;;;;;;;;;;5073304;28;20079;-71
2021/10/07 07:38:58;;;;;;;11.32;2.72;;;;;;;;;;5072922;28;20143;-71
2021/10/07 07:41:37;;;;;;;8.13;1.92;;;;;;;;;;5073146;28;20429;-70
2021/10/07 07:44:05;;;;;;;8.80;2.30;;;;;;;;;;5073091;28;20423;-71
2021/10/07 07:46:33;;;;;;;8.60;2.35;;;;;;;;;;5073307;28;20055;-71
2021/10/07 07:49:00;;;;;;;11.57;3.10;;;;;;;;;;5054399;28;20413;-71
2021/10/07 07:51:28;;;;;;;14.07;2.55;;;;;;;;;;5073143;28;20115;-71
2021/10/07 07:53:56;;;;;;;9.73;2.63;;;;;;;;;;5073081;28;20044;-70
2021/10/07 07:56:23;;;;;;;8.60;2.20;;;;;;;;;;5055457;28;20442;-71
2021/10/07 07:58:50;;;;;;;8.65;2.17;;;;;;;;;;5055497;28;20421;-70
2021/10/07 08:01:22;;;;;;;8.50;2.20;;;;;;;;;;5073174;28;20055;-70
2021/10/07 08:03:49;;;;;;;9.60;2.55;;;;;;;;;;5071852;28;20040;-70
2021/10/07 08:06:17;;;;;;;11.68;2.40;;;;;;;;;;5054660;28;20405;-71
2021/10/07 08:08:45;;;;;;;11.32;2.65;;;;;;;;;;5072814;28;20039;-75
2021/10/07 08:11:13;;;;;;;10.77;2.45;;;;;;;;;;5072738;28;20037;-75
2021/10/07 08:13:42;;;;;;;8.32;1.92;;;;;;;;;;5072456;28;20508;-71
2021/10/07 08:16:09;;;;;;;9.48;2.50;;;;;;;;;;5073242;28;20063;-74
2021/10/07 08:18:37;;;;;;;11.35;2.78;;;;;;;;;;5072716;28;20119;-72
2021/10/07 08:21:11;;;;;;;7.13;2.22;;;;;;;;;;5072743;28;20473;-72
2021/10/07 08:23:39;;;;;;;9.23;2.28;;;;;;;;;;5072294;28;20119;-75
2021/10/07 08:26:07;;;;;;;8.38;2.08;;;;;;;;;;5072853;28;20052;-72
2021/10/07 08:28:34;;;;;;;14.57;2.80;;;;;;;;;;5072609;28;20053;-74
2021/10/07 08:31:02;;;;;;;11.90;2.80;;;;;;;;;;5072460;28;20512;-70
2021/10/07 08:33:29;;;;;;;9.70;2.30;;;;;;;;;;5071329;28;20445;-68
2021/10/07 08:35:57;;;;;;;11.25;2.50;;;;;;;;;;5072405;28;20412;-72
2021/10/07 08:38:26;;;;;;;14.80;2.55;;;;;;;;;;5055658;28;20131;-74
2021/10/07 08:40:54;;;;;;;10.75;1.90;;;;;;;;;;5072858;28;20523;-72
2021/10/07 08:43:24;;;;;;;10.20;2.30;;;;;;;;;;5072889;28;20048;-70
2021/10/07 08:45:52;;;;;;;17.52;2.88;;;;;;;;;;5076339;28;20123;-72
2021/10/07 08:48:21;;;;;;;8.25;2.42;;;;;;;;;;5076130;28;20046;-70
2021/10/07 08:50:49;;;;;;;11.98;2.05;;;;;;;;;;5076862;28;20048;-70
2021/10/07 08:53:18;;;;;;;9.40;2.30;;;;;;;;;;5076785;28;20108;-70
2021/10/07 08:55:46;;;;;;;13.88;2.65;;;;;;;;;;5076689;28;20066;-70
2021/10/07 08:58:13;;;;;;;9.50;2.17;;;;;;;;;;5076148;28;20041;-70
2021/10/07 09:00:40;;;;;;;9.75;2.10;;;;;;;;;;5076264;28;20166;-70
2021/10/07 09:03:18;;;;;;;12.75;2.60;;;;;;;;;;5076328;28;20494;-70
2021/10/07 09:05:46;;;;;;;8.85;2.25;;;;;;;;;;5076714;28;20044;-73
2021/10/07 09:08:15;;;;;;;8.48;2.10;;;;;;;;;;5076268;28;20037;-74
2021/10/07 09:10:44;;;;;;;11.93;1.67;;;;;;;;;;5076266;28;20037;-73
2021/10/07 09:13:26;;;;;;;11.43;1.75;;;;;;;;;;5058978;28;20115;-75
2021/10/07 09:15:58;;;;;;;6.30;1.73;;;;;;;;;;5076081;28;20070;-72
2021/10/07 09:18:26;;;;;;;9.35;2.00;;;;;;;;;;5076709;28;20370;-73
2021/10/07 09:20:55;;;;;;;7.22;2.30;;;;;;;;;;5075706;28;20032;-75
2021/10/07 09:23:24;;;;;;;11.05;2.30;;;;;;;;;;5076199;28;20037;-75
2021/10/07 09:26:08;;;;;;;9.73;1.85;;;;;;;;;;5076150;28;20032;-72
2021/10/07 09:28:58;;;;;;;13.57;2.72;;;;;;;;;;5058329;28;20036;-72
2021/10/07 09:31:31;;;;;;;14.55;2.20;;;;;;;;;;5075455;28;20131;-75
2021/10/07 09:34:03;;;;;;;15.57;2.10;;;;;;;;;;5076079;28;20047;-74
2021/10/07 09:36:32;;;;;;;7.88;1.90;;;;;;;;;;5075726;28;20136;-74
2021/10/07 09:39:01;;;;;;;11.25;2.25;;;;;;;;;;5074954;28;20036;-72
2021/10/07 09:41:31;;;;;;;12.57;2.42;;;;;;;;;;5075633;28;20561;-72
2021/10/07 09:44:05;;;;;;;5.20;1.70;;;;;;;;;;5075239;28;20115;-74
2021/10/07 09:46:46;;;;;;;6.95;1.88;;;;;;;;;;5074908;28;20109;-73
2021/10/07 09:49:14;;;;;;;8.27;2.10;;;;;;;;;;5075101;28;20043;-73
2021/10/07 09:51:41;;;;;;;8.68;1.90;;;;;;;;;;5074474;28;20040;-73
2021/10/07 09:54:10;;;;;;;6.82;2.08;;;;;;;;;;5053527;28;20070;-73
2021/10/07 09:56:38;;;;;;;9.65;2.60;;;;;;;;;;5073726;28;20516;-73
2021/10/07 09:59:11;;;;;;;11.25;2.58;;;;;;;;;;5071805;28;20490;-75
2021/10/07 10:01:39;;;;;;;7.97;2.20;;;;;;;;;;5072889;28;20049;-76
2021/10/07 10:04:10;;;;;;;13.27;2.33;;;;;;;;;;5073692;28;20128;-72
2021/10/07 10:06:37;;;;;;;10.23;2.28;;;;;;;;;;5057257;28;20122;-74
2021/10/07 10:09:05;;;;;;;6.88;1.90;;;;;;;;;;5074885;28;20507;-75
2021/10/07 10:11:34;;;;;;;16.63;2.92;;;;;;;;;;5074771;28;20420;-77
2021/10/07 10:14:01;;;;;;;9.82;2.20;;;;;;;;;;5074583;28;20055;-72
2021/10/07 10:16:30;;;;;;;10.13;2.40;;;;;;;;;;5074997;28;20047;-74
2021/10/07 10:19:02;;;;;;;7.18;2.00;;;;;;;;;;5074597;28;20048;-74
2021/10/07 10:21:29;;;;;;;;;;;;;;;;;;5075256;28;20051;-74
2021/10/07 10:23:59;;;;;;;6.35;1.98;;;;;;;;;;5074738;28;19932;-73
2021/10/07 10:26:27;;;;;;;6.43;2.08;;;;;;;;;;5057074;28;20044;-74
2021/10/07 10:28:55;;;;;;;8.52;2.10;;;;;;;;;;5056765;28;20047;-74
2021/10/07 10:31:32;;;;;;;9.00;1.80;;;;;;;;;;5074141;28;20117;-73
2021/10/07 10:34:08;;;;;;;7.93;1.90;;;;;;;;;;5074528;28;20094;-77
2021/10/07 10:36:38;;;;;;;9.45;2.03;;;;;;;;;;5074516;28;20429;-74
2021/10/07 10:39:10;;;;;;;8.95;2.10;;;;;;;;;;5074523;28;20055;-73
2021/10/07 10:41:45;;;;;;;6.03;1.90;;;;;;;;;;5074543;28;20038;-73
2021/10/07 10:44:27;;;;;;;14.30;2.17;;;;;;;;;;5073849;28;20123;-72
2021/10/07 10:47:14;;;;;;;7.07;1.92;;;;;;;;;;5056510;28;20123;-74
2021/10/07 10:49:51;;;;;;;8.75;1.98;;;;;;;;;;5074087;28;20072;-73
2021/10/07 10:52:22;;;;;;;7.35;2.00;;;;;;;;;;5074193;28;20037;-77
2021/10/07 10:55:00;;;;;;;10.25;2.05;;;;;;;;;;5074293;28;20479;-72
2021/10/07 10:57:28;;;;;;;10.80;2.22;;;;;;;;;;5073672;28;20569;-72
2021/10/07 11:00:05;;;;;;;7.72;2.22;;;;;;;;;;5055873;28;20050;-73
2021/10/07 11:02:32;;;;;;;11.30;2.47;;;;;;;;;;5074218;28;20416;-72
2021/10/07 11:05:10;;;;;;;6.40;2.10;;;;;;;;;;5073676;28;20076;-75
2021/10/07 11:07:39;;;;;;;11.50;2.17;;;;;;;;;;5073044;28;20056;-72
2021/10/07 11:10:18;;;;;;;8.75;2.00;;;;;;;;;;5055683;28;20040;-72
2021/10/07 11:12:46;;;;;;;8.57;2.08;;;;;;;;;;5073338;28;20397;-75
2021/10/07 11:15:14;;;;;;;8.68;1.70;;;;;;;;;;5073514;28;20378;-72
2021/10/07 11:17:43;;;;;;;10.68;2.10;;;;;;;;;;5073230;28;20096;-72
2021/10/07 11:20:19;;;;;;;5.72;1.98;;;;;;;;;;5073369;28;20119;-72
2021/10/07 11:23:11;;;;;;;5.47;1.70;;;;;;;;;;5073436;28;20520;-76
2021/10/07 11:25:40;;;;;;;9.35;2.13;;;;;;;;;;5073241;28;20139;-72
2021/10/07 11:28:08;;;;;;;8.73;2.10;;;;;;;;;;5073352;28;20040;-70
2021/10/07 11:30:40;;;;;;;9.38;2.17;;;;;;;;;;5072892;28;20401;-70
2021/10/07 11:33:09;;;;;;;8.80;2.20;;;;;;;;;;5039201;28;20421;-76
2021/10/07 11:35:37;;;;;;;8.13;1.70;;;;;;;;;;5054975;28;20055;-74
2021/10/07 11:38:13;;;;;;;9.82;1.92;;;;;;;;;;5072757;28;20044;-76
2021/10/07 11:40:44;;;;;;;6.75;2.03;;;;;;;;;;5073310;28;20045;-75
2021/10/07 11:43:18;;;;;;;5.38;1.70;;;;;;;;;;5072804;28;20410;-70
2021/10/07 11:45:47;;;;;;;7.45;1.60;;;;;;;;;;5162095;22;20052;-72
2021/10/07 11:48:15;;;;;;;8.55;2.10;;;;;;;;;;5093303;28;20052;-77
2021/10/07 11:50:49;;;;;;;11.23;1.80;;;;;;;;;;5110293;28;20092;-71
2021/10/07 11:53:27;;;;;;;11.60;2.10;;;;;;;;;;5113730;28;20040;-72
2021/10/07 11:55:59;;;;;;;5.18;2.00;;;;;;;;;;5112985;28;20039;-72
2021/10/07 11:58:30;;;;;;;7.80;1.80;;;;;;;;;;5114042;28;20119;-73
2021/10/07 12:00:58;;;;;;;6.13;1.95;;;;;;;;;;5113072;28;20046;-71
2021/10/07 12:03:28;;;;;;;5.70;1.55;;;;;;;;;;5113276;28;20058;-73
2021/10/07 12:05:59;;;;;;;6.47;1.65;;;;;;;;;;5113665;28;20071;-73
2021/10/07 12:08:30;;;;;;;14.43;2.30;;;;;;;;;;5113290;28;20047;-72
2021/10/07 12:10:59;;;;;;;7.97;2.03;;;;;;;;;;5113308;28;20381;-72
2021/10/07 12:13:29;;;;;;;8.85;1.90;;;;;;;;;;5113532;28;20392;-75
2021/10/07 12:16:05;;;;;;;5.85;1.80;;;;;;;;;;5113820;28;20047;-73
2021/10/07 12:18:35;;;;;;;9.10;2.38;;;;;;;;;;5113101;28;20044;-72
2021/10/07 12:21:06;;;;;;;9.05;2.10;;;;;;;;;;5095416;28;20122;-78
2021/10/07 12:23:56;;;;;;;9.38;1.73;;;;;;;;;;5113051;28;20043;-75
2021/10/07 12:26:28;;;;;;;7.10;1.92;;;;;;;;;;5112930;28;20122;-73
2021/10/07 12:28:56;;;;;;;6.75;1.90;;;;;;;;;;5113554;28;20071;-77
2021/10/07 12:31:26;;;;;;;8.82;2.05;;;;;;;;;;5113066;28;20040;-78
2021/10/07 12:34:05;;;;;;;6.85;1.98;;;;;;;;;;5113628;28;20044;-75
2021/10/07 12:36:33;;;;;;;8.93;2.10;;;;;;;;;;5113058;28;20062;-78
2021/10/07 12:39:01;;;;;;;7.40;1.88;;;;;;;;;;5112637;28;20329;-75
2021/10/07 12:41:37;;;;;;;8.00;2.03;;;;;;;;;;5113376;28;20506;-75
2021/10/07 12:44:05;;;;;;;7.75;2.58;;;;;;;;;;5078090;28;20050;-75
2021/10/07 12:46:42;;;;;;;9.35;2.30;;;;;;;;;;5112767;28;20079;-72
2021/10/07 12:49:10;;;;;;;8.43;2.00;;;;;;;;;;5112953;28;20044;-72
2021/10/07 12:51:43;;;;;;;7.40;2.30;;;;;;;;;;5112983;28;20054;-77
2021/10/07 12:54:12;;;;;;;8.52;2.17;;;;;;;;;;5094501;28;20392;-72
2021/10/07 12:56:46;;;;;;;7.75;2.22;;;;;;;;;;5113207;28;20054;-78
2021/10/07 12:59:14;;;;;;;6.20;2.00;;;;;;;;;;5113037;28;20036;-78
2021/10/07 13:01:44;;;;;;;6.70;1.75;;;;;;;;;;5112956;28;20138;-72
2021/10/07 13:04:24;;;;;;;7.75;1.98;;;;;;;;;;5113004;28;20043;-76
2021/10/07 13:06:54;;;;;;;6.22;2.10;;;;;;;;;;5113210;28;20047;-73
2021/10/07 13:09:21;;;;;;;5.47;1.80;;;;;;;;;;5112509;28;20043;-75
2021/10/07 13:11:50;;;;;;;8.13;2.10;;;;;;;;;;5094985;28;20075;-73
2021/10/07 13:14:20;;;;;;;8.50;1.98;;;;;;;;;;5095337;28;20039;-71
2021/10/07 13:16:48;;;;;;;8.38;1.92;;;;;;;;;;5112904;28;20047;-71
2021/10/07 13:19:17;;;;;;;7.00;1.90;;;;;;;;;;5113132;28;20074;-77
2021/10/07 13:21:46;;;;;;;4.80;1.50;;;;;;;;;;5112655;28;20043;-74
2021/10/07 13:24:13;;;;;;;6.47;1.83;;;;;;;;;;5111999;28;20058;-77
2021/10/07 13:26:57;;;;;;;6.30;1.70;;;;;;;;;;5112898;28;20050;-75
2021/10/07 13:29:25;;;;;;;6.82;1.75;;;;;;;;;;5113066;28;20036;-75
2021/10/07 13:31:54;;;;;;;7.93;2.20;;;;;;;;;;5116540;28;20043;-72
2021/10/07 13:34:22;;;;;;;6.72;1.75;;;;;;;;;;5116933;28;20036;-72
2021/10/07 13:36:49;;;;;;;6.45;2.13;;;;;;;;;;5115592;28;20056;-77
2021/10/07 13:39:17;;;;;;;11.25;2.05;;;;;;;;;;5080917;28;20042;-78
2021/10/07 13:41:44;;;;;;;11.93;2.50;;;;;;;;;;5113586;28;20039;-77
2021/10/07 13:44:12;;;;;;;8.77;2.03;;;;;;;;;;5114726;28;20055;-73
2021/10/07 13:46:46;;;;;;;9.00;2.35;;;;;;;;;;5115828;28;20130;-73
2021/10/07 13:49:13;;;;;;;10.23;2.25;;;;;;;;;;5115614;28;20118;-71
2021/10/07 13:51:42;;;;;;;7.97;2.10;;;;;;;;;;5115313;28;20031;-73
2021/10/07 13:54:09;;;;;;;5.43;2.10;;;;;;;;;;5097510;28;20040;-77
2021/10/07 13:56:37;;;;;;;8.82;2.67;;;;;;;;;;5097605;28;20043;-74
2021/10/07 13:59:04;;;;;;;6.43;1.90;;;;;;;;;;5115140;28;20523;-72
2021/10/07 14:01:33;;;;;;;8.52;2.65;;;;;;;;;;5115289;28;20500;-74
2021/10/07 14:04:01;;;;;;;7.68;2.05;;;;;;;;;;5115320;28;20496;-72
2021/10/07 14:06:32;;;;;;;10.77;2.47;;;;;;;;;;5097143;28;20131;-77
2021/10/07 14:08:59;;;;;;;11.85;2.47;;;;;;;;;;5114775;28;20039;-77
2021/10/07 14:11:28;;;;;;;8.27;2.10;;;;;;;;;;5115055;28;20043;-71
2021/10/07 14:13:55;;;;;;;11.50;2.05;;;;;;;;;;5114187;28;20046;-77
2021/10/07 14:16:24;;;;;;;12.48;2.42;;;;;;;;;;5114958;28;20507;-75
2021/10/07 14:18:56;;;;;;;13.23;2.50;;;;;;;;;;5114944;28;20043;-74
2021/10/07 14:21:24;;;;;;;11.60;2.30;;;;;;;;;;5113794;28;20492;-74
2021/10/07 14:23:52;;;;;;;9.82;2.40;;;;;;;;;;5114847;28;20507;-71
2021/10/07 14:26:20;;;;;;;14.05;2.50;;;;;;;;;;5114844;28;20393;-73
2021/10/07 14:28:48;;;;;;;8.80;2.20;;;;;;;;;;5114718;28;20122;-73
2021/10/07 14:31:17;;;;;;;7.55;2.30;;;;;;;;;;5114208;28;20032;-74
2021/10/07 14:33:45;;;;;;;7.43;1.70;;;;;;;;;;5114940;28;20062;-71
2021/10/07 14:36:16;;;;;;;12.73;2.72;;;;;;;;;;5114466;28;20119;-71
2021/10/07 14:38:44;;;;;;;7.22;2.47;;;;;;;;;;5114513;28;20088;-71
2021/10/07 14:41:11;;;;;;;10.50;2.35;;;;;;;;;;5112919;28;20044;-71
2021/10/07 14:43:39;;;;;;;5.93;1.98;;;;;;;;;;5113270;28;20493;-73
2021/10/07 14:46:09;;;;;;;9.30;1.83;;;;;;;;;;5113811;28;20441;-73
2021/10/07 14:48:37;;;;;;;8.60;2.33;;;;;;;;;;5096114;28;20052;-72
2021/10/07 14:51:05;;;;;;;6.90;1.77;;;;;;;;;;5113743;28;20047;-71
2021/10/07 14:53:33;;;;;;;11.23;1.98;;;;;;;;;;5114124;28;20044;-73
2021/10/07 14:56:02;;;;;;;6.47;1.42;;;;;;;;;;5114270;28;20039;-72
2021/10/07 14:58:30;;;;;;;2.78;1.50;;;;;;;;;;5114020;28;20036;-73
2021/10/07 15:00:57;;;;;;;7.45;1.80;;;;;;;;;;5114082;28;20412;-74
2021/10/07 15:03:24;;;;;;;6.38;1.77;;;;;;;;;;5096053;28;20446;-73